createdAt,value
2017-10-05T00:00:13.965Z,0
2017-10-05T00:00:54.526Z,0
2017-10-05T00:01:35.082Z,0
2017-10-05T00:02:15.692Z,0
2017-10-05T00:02:56.204Z,0
2017-10-05T00:03:36.756Z,0
2017-10-05T00:04:17.311Z,0
2017-10-05T00:04:57.927Z,0
2017-10-05T00:05:38.379Z,0
2017-10-05T00:06:18.964Z,0
2017-10-05T00:06:59.461Z,0
2017-10-05T00:07:40.007Z,0
2017-10-05T00:08:20.563Z,0
2017-10-05T00:09:01.118Z,0
2017-10-05T00:09:41.663Z,0
2017-10-05T00:10:22.226Z,0
2017-10-05T00:11:02.787Z,0
2017-10-05T00:11:43.340Z,0
2017-10-05T00:12:23.867Z,0
2017-10-05T00:13:04.404Z,0
2017-10-05T00:13:44.956Z,0
2017-10-05T00:14:25.444Z,0
2017-10-05T00:16:38.730Z,0
2017-10-05T00:17:19.260Z,0
2017-10-05T00:17:59.831Z,0
2017-10-05T00:18:40.371Z,0
2017-10-05T00:19:20.919Z,0
2017-10-05T00:20:01.405Z,0
2017-10-05T00:20:41.974Z,0
2017-10-05T00:21:22.480Z,0
2017-10-05T00:22:03.028Z,0
2017-10-05T00:22:43.597Z,0
2017-10-05T00:23:24.104Z,0
2017-10-05T00:24:04.616Z,0
2017-10-05T00:24:45.140Z,0
2017-10-05T00:25:25.693Z,0
2017-10-05T00:26:06.234Z,0
2017-10-05T00:26:46.854Z,0
2017-10-05T00:27:27.339Z,0
2017-10-05T00:29:45.695Z,0
2017-10-05T00:30:26.229Z,0
2017-10-05T00:31:06.789Z,0
2017-10-05T00:31:47.354Z,0
2017-10-05T00:32:27.874Z,0
2017-10-05T00:33:08.410Z,0
2017-10-05T00:33:48.906Z,0
2017-10-05T00:34:29.446Z,0
2017-10-05T00:35:10.004Z,0
2017-10-05T00:35:50.527Z,0
2017-10-05T00:36:31.132Z,0
2017-10-05T00:37:11.657Z,0
2017-10-05T00:37:52.169Z,0
2017-10-05T00:38:32.749Z,0
2017-10-05T00:39:13.262Z,0
2017-10-05T00:39:53.809Z,0
2017-10-05T00:40:34.283Z,0
2017-10-05T00:41:14.847Z,0
2017-10-05T00:41:55.399Z,0
2017-10-05T00:42:35.946Z,0
2017-10-05T00:43:16.423Z,0
2017-10-05T00:43:56.964Z,0
2017-10-05T00:44:37.510Z,0
2017-10-05T00:45:18.023Z,0
2017-10-05T00:45:58.508Z,0
2017-10-05T00:46:39.051Z,0
2017-10-05T00:47:19.611Z,0
2017-10-05T00:48:00.152Z,0
2017-10-05T00:48:40.744Z,0
2017-10-05T00:49:21.268Z,0
2017-10-05T00:50:01.814Z,0
2017-10-05T00:50:42.450Z,0
2017-10-05T00:51:22.907Z,0
2017-10-05T00:52:03.441Z,0
2017-10-05T00:52:43.952Z,0
2017-10-05T00:53:24.559Z,0
2017-10-05T00:54:05.027Z,0
2017-10-05T00:54:45.596Z,0
2017-10-05T00:55:26.138Z,0
2017-10-05T00:56:06.668Z,0
2017-10-05T00:56:47.245Z,0
2017-10-05T00:57:27.778Z,0
2017-10-05T00:58:08.316Z,0
2017-10-05T00:58:48.872Z,0
2017-10-05T00:59:29.387Z,0
2017-10-05T01:00:10.027Z,0
2017-10-05T01:00:50.480Z,0
2017-10-05T01:01:31.105Z,0
2017-10-05T01:02:11.539Z,0
2017-10-05T01:02:52.089Z,0
2017-10-05T01:03:32.636Z,0
2017-10-05T01:04:13.171Z,0
2017-10-05T01:04:53.684Z,0
2017-10-05T01:05:34.209Z,0
2017-10-05T01:06:14.736Z,0
2017-10-05T01:06:55.286Z,0
2017-10-05T01:07:35.821Z,0
2017-10-05T01:10:04.342Z,0
2017-10-05T01:10:45.099Z,0
2017-10-05T01:11:25.591Z,0
2017-10-05T01:12:06.151Z,0
2017-10-05T01:12:46.765Z,0
2017-10-05T01:13:27.307Z,0
2017-10-05T01:14:07.855Z,0
2017-10-05T01:14:48.377Z,0
2017-10-05T01:15:28.887Z,0
2017-10-05T01:16:09.411Z,0
2017-10-05T01:16:49.947Z,0
2017-10-05T01:17:30.487Z,0
2017-10-05T01:18:10.995Z,0
2017-10-05T01:18:51.614Z,0
2017-10-05T01:19:32.189Z,0
2017-10-05T01:20:12.732Z,0
2017-10-05T01:20:53.278Z,0
2017-10-05T01:21:33.858Z,0
2017-10-05T01:22:14.400Z,0
2017-10-05T01:22:54.895Z,0
2017-10-05T01:23:35.491Z,0
2017-10-05T01:24:15.989Z,0
2017-10-05T01:24:56.514Z,0
2017-10-05T01:25:37.054Z,0
2017-10-05T01:26:17.570Z,0
2017-10-05T01:26:58.134Z,0
2017-10-05T01:27:38.679Z,0
2017-10-05T01:28:19.236Z,0
2017-10-05T01:28:59.711Z,0
2017-10-05T01:29:40.275Z,0
2017-10-05T01:30:20.784Z,0
2017-10-05T01:31:01.328Z,0
2017-10-05T01:31:41.882Z,0
2017-10-05T01:32:22.381Z,0
2017-10-05T01:33:02.927Z,0
2017-10-05T01:33:43.456Z,0
2017-10-05T01:34:24.031Z,0
2017-10-05T01:35:04.519Z,0
2017-10-05T01:35:45.019Z,0
2017-10-05T01:36:25.636Z,0
2017-10-05T01:37:06.164Z,0
2017-10-05T01:37:46.654Z,0
2017-10-05T01:38:27.179Z,0
2017-10-05T01:39:07.727Z,0
2017-10-05T01:39:48.247Z,0
2017-10-05T01:40:28.834Z,0
2017-10-05T01:41:09.337Z,0
2017-10-05T01:41:49.929Z,0
2017-10-05T01:42:30.507Z,0
2017-10-05T01:43:11.040Z,0
2017-10-05T01:43:51.597Z,0
2017-10-05T01:44:32.087Z,0
2017-10-05T01:45:12.702Z,0
2017-10-05T01:45:53.224Z,0
2017-10-05T01:46:33.730Z,0
2017-10-05T01:47:14.289Z,0
2017-10-05T01:47:54.816Z,0
2017-10-05T01:48:35.334Z,0
2017-10-05T01:49:15.894Z,0
2017-10-05T01:49:56.432Z,0
2017-10-05T01:50:36.955Z,0
2017-10-05T01:51:17.580Z,0
2017-10-05T01:51:58.076Z,0
2017-10-05T01:52:38.619Z,0
2017-10-05T01:53:19.137Z,0
2017-10-05T01:53:59.674Z,0
2017-10-05T01:54:40.210Z,0
2017-10-05T01:55:20.710Z,0
2017-10-05T01:56:01.265Z,0
2017-10-05T01:56:41.725Z,0
2017-10-05T01:57:22.253Z,0
2017-10-05T01:58:02.826Z,0
2017-10-05T01:58:43.360Z,0
2017-10-05T01:59:23.858Z,0
2017-10-05T02:00:04.422Z,0
2017-10-05T02:00:44.962Z,0
2017-10-05T02:01:25.491Z,0
2017-10-05T02:02:05.946Z,0
2017-10-05T02:02:46.499Z,0
2017-10-05T02:03:27.042Z,0
2017-10-05T02:04:07.558Z,0
2017-10-05T02:04:48.097Z,0
2017-10-05T02:05:28.638Z,0
2017-10-05T02:06:09.234Z,0
2017-10-05T02:06:49.792Z,0
2017-10-05T02:07:30.288Z,0
2017-10-05T02:08:10.819Z,0
2017-10-05T02:08:51.449Z,0
2017-10-05T02:09:31.945Z,0
2017-10-05T02:10:12.533Z,0
2017-10-05T02:10:53.021Z,0
2017-10-05T02:11:33.567Z,0
2017-10-05T02:12:14.090Z,0
2017-10-05T02:12:54.636Z,0
2017-10-05T02:13:35.191Z,0
2017-10-05T02:14:15.728Z,0
2017-10-05T02:14:56.319Z,0
2017-10-05T02:15:36.758Z,0
2017-10-05T02:16:17.338Z,0
2017-10-05T02:16:57.837Z,0
2017-10-05T02:17:38.441Z,0
2017-10-05T02:18:18.946Z,0
2017-10-05T02:18:59.506Z,0
2017-10-05T02:19:40.059Z,0
2017-10-05T02:20:20.544Z,0
2017-10-05T02:21:01.079Z,0
2017-10-05T02:21:41.611Z,0
2017-10-05T02:22:22.125Z,0
2017-10-05T02:23:02.676Z,0
2017-10-05T02:23:43.214Z,0
2017-10-05T02:24:23.779Z,0
2017-10-05T02:25:04.285Z,0
2017-10-05T02:25:44.832Z,0
2017-10-05T02:26:25.290Z,0
2017-10-05T02:27:05.916Z,0
2017-10-05T02:27:46.388Z,0
2017-10-05T02:28:26.976Z,0
2017-10-05T02:29:07.520Z,0
2017-10-05T02:29:48.042Z,0
2017-10-05T02:30:28.591Z,0
2017-10-05T02:31:09.136Z,0
2017-10-05T02:31:49.715Z,0
2017-10-05T02:32:30.227Z,0
2017-10-05T02:33:10.863Z,0
2017-10-05T02:33:51.338Z,0
2017-10-05T02:34:31.906Z,0
2017-10-05T02:35:12.463Z,0
2017-10-05T02:35:53.005Z,0
2017-10-05T02:36:33.544Z,0
2017-10-05T02:37:14.089Z,0
2017-10-05T02:37:54.625Z,0
2017-10-05T02:38:35.205Z,0
2017-10-05T02:39:15.677Z,0
2017-10-05T02:39:56.204Z,0
2017-10-05T02:40:36.746Z,0
2017-10-05T02:41:17.262Z,0
2017-10-05T02:41:57.820Z,0
2017-10-05T02:42:38.388Z,0
2017-10-05T02:43:18.940Z,0
2017-10-05T02:43:59.428Z,0
2017-10-05T02:44:39.991Z,0
2017-10-05T02:45:20.529Z,0
2017-10-05T02:46:01.076Z,0
2017-10-05T02:46:41.643Z,0
2017-10-05T02:47:22.131Z,0
2017-10-05T02:48:02.675Z,0
2017-10-05T02:48:43.237Z,0
2017-10-05T02:49:23.809Z,0
2017-10-05T02:50:04.307Z,0
2017-10-05T02:50:44.869Z,0
2017-10-05T02:51:25.412Z,0
2017-10-05T02:52:05.914Z,0
2017-10-05T02:52:46.433Z,0
2017-10-05T02:53:26.975Z,0
2017-10-05T02:54:07.468Z,0
2017-10-05T02:54:47.976Z,0
2017-10-05T02:55:28.514Z,0
2017-10-05T02:57:41.808Z,0
2017-10-05T02:58:22.371Z,0
2017-10-05T02:59:02.913Z,0
2017-10-05T02:59:43.492Z,0
2017-10-05T03:00:24.017Z,0
2017-10-05T03:01:04.544Z,0
2017-10-05T03:01:45.080Z,0
2017-10-05T03:02:25.584Z,0
2017-10-05T03:03:06.147Z,0
2017-10-05T03:03:46.665Z,0
2017-10-05T03:04:27.183Z,0
2017-10-05T03:05:07.719Z,0
2017-10-05T03:05:48.237Z,0
2017-10-05T03:06:28.803Z,0
2017-10-05T03:07:09.291Z,0
2017-10-05T03:07:49.803Z,0
2017-10-05T03:08:30.390Z,0
2017-10-05T03:09:10.903Z,0
2017-10-05T03:09:51.456Z,0
2017-10-05T03:10:32.017Z,0
2017-10-05T03:11:12.527Z,0
2017-10-05T03:11:53.092Z,0
2017-10-05T03:12:33.653Z,0
2017-10-05T03:13:14.269Z,0
2017-10-05T03:13:54.813Z,0
2017-10-05T03:14:35.369Z,0
2017-10-05T03:15:15.872Z,0
2017-10-05T03:15:56.434Z,0
2017-10-05T03:16:36.950Z,0
2017-10-05T03:17:17.500Z,0
2017-10-05T03:17:58.011Z,0
2017-10-05T03:18:38.534Z,0
2017-10-05T03:19:19.130Z,0
2017-10-05T03:19:59.641Z,0
2017-10-05T03:20:40.153Z,0
2017-10-05T03:21:20.731Z,0
2017-10-05T03:22:01.311Z,0
2017-10-05T03:22:41.852Z,0
2017-10-05T03:23:22.403Z,0
2017-10-05T03:24:02.881Z,0
2017-10-05T03:24:43.457Z,0
2017-10-05T03:25:23.990Z,0
2017-10-05T03:26:04.505Z,0
2017-10-05T03:26:45.068Z,0
2017-10-05T03:27:25.562Z,0
2017-10-05T03:28:06.134Z,0
2017-10-05T03:28:46.642Z,0
2017-10-05T03:29:27.147Z,0
2017-10-05T03:30:07.768Z,0
2017-10-05T03:30:48.272Z,0
2017-10-05T03:31:28.831Z,0
2017-10-05T03:32:09.398Z,0
2017-10-05T03:32:49.887Z,0
2017-10-05T03:33:30.450Z,0
2017-10-05T03:34:10.994Z,0
2017-10-05T03:34:51.525Z,0
2017-10-05T03:35:32.015Z,0
2017-10-05T03:36:12.602Z,0
2017-10-05T03:36:53.123Z,0
2017-10-05T03:37:33.669Z,0
2017-10-05T03:38:14.240Z,0
2017-10-05T03:38:54.801Z,0
2017-10-05T03:39:35.308Z,0
2017-10-05T03:40:15.871Z,0
2017-10-05T03:40:56.499Z,0
2017-10-05T03:41:36.965Z,0
2017-10-05T03:42:17.532Z,0
2017-10-05T03:42:58.092Z,0
2017-10-05T03:43:38.612Z,0
2017-10-05T03:44:19.190Z,0
2017-10-05T03:44:59.703Z,0
2017-10-05T03:45:40.247Z,0
2017-10-05T03:46:20.739Z,0
2017-10-05T03:47:01.372Z,0
2017-10-05T03:47:41.836Z,0
2017-10-05T03:48:22.381Z,0
2017-10-05T03:49:02.974Z,0
2017-10-05T03:49:43.548Z,0
2017-10-05T03:50:24.005Z,0
2017-10-05T03:51:04.561Z,0
2017-10-05T03:51:45.102Z,0
2017-10-05T03:52:25.594Z,0
2017-10-05T03:53:06.177Z,0
2017-10-05T03:53:46.723Z,0
2017-10-05T03:54:27.304Z,0
2017-10-05T03:55:07.826Z,0
2017-10-05T03:55:48.363Z,0
2017-10-05T03:56:28.852Z,0
2017-10-05T03:57:09.386Z,0
2017-10-05T03:57:49.967Z,0
2017-10-05T03:58:30.482Z,0
2017-10-05T03:59:11.004Z,0
2017-10-05T03:59:51.593Z,0
2017-10-05T04:00:32.169Z,0
2017-10-05T04:01:12.694Z,0
2017-10-05T04:01:53.141Z,0
2017-10-05T04:02:33.736Z,0
2017-10-05T04:03:14.246Z,0
2017-10-05T04:03:54.745Z,0
2017-10-05T04:04:35.360Z,0
2017-10-05T04:05:15.864Z,0
2017-10-05T04:05:56.352Z,0
2017-10-05T04:06:36.934Z,0
2017-10-05T04:07:17.467Z,0
2017-10-05T04:07:58.024Z,0
2017-10-05T04:08:38.639Z,0
2017-10-05T04:09:19.130Z,0
2017-10-05T04:09:59.634Z,0
2017-10-05T04:10:40.210Z,0
2017-10-05T04:11:20.706Z,0
2017-10-05T04:12:01.297Z,0
2017-10-05T04:12:41.774Z,0
2017-10-05T04:13:22.354Z,0
2017-10-05T04:14:02.953Z,0
2017-10-05T04:14:43.435Z,0
2017-10-05T04:15:24.011Z,0
2017-10-05T04:16:04.522Z,0
2017-10-05T04:16:45.201Z,0
2017-10-05T04:17:25.799Z,0
2017-10-05T04:18:06.491Z,0
2017-10-05T04:18:47.143Z,0
2017-10-05T04:19:27.696Z,0
2017-10-05T04:20:08.243Z,0
2017-10-05T04:20:48.793Z,0
2017-10-05T04:21:29.343Z,0
2017-10-05T04:22:09.892Z,0
2017-10-05T04:22:50.375Z,0
2017-10-05T04:23:30.980Z,0
2017-10-05T04:24:11.494Z,0
2017-10-05T04:24:52.038Z,0
2017-10-05T04:25:32.559Z,0
2017-10-05T04:26:13.109Z,0
2017-10-05T04:26:53.646Z,0
2017-10-05T04:27:34.230Z,0
2017-10-05T04:28:14.756Z,0
2017-10-05T04:28:55.344Z,0
2017-10-05T04:29:35.910Z,0
2017-10-05T04:30:16.436Z,0
2017-10-05T04:30:56.977Z,0
2017-10-05T04:31:37.575Z,0
2017-10-05T04:32:18.075Z,0
2017-10-05T04:32:58.610Z,0
2017-10-05T04:33:39.148Z,0
2017-10-05T04:34:19.648Z,0
2017-10-05T04:35:00.222Z,0
2017-10-05T04:35:40.772Z,0
2017-10-05T04:36:21.330Z,0
2017-10-05T04:37:01.875Z,0
2017-10-05T04:37:42.359Z,0
2017-10-05T04:38:22.849Z,0
2017-10-05T04:39:03.399Z,0
2017-10-05T04:39:43.973Z,0
2017-10-05T04:40:24.529Z,0
2017-10-05T04:41:05.032Z,0
2017-10-05T04:41:45.659Z,0
2017-10-05T04:42:26.214Z,0
2017-10-05T04:43:06.780Z,0
2017-10-05T04:43:47.302Z,0
2017-10-05T04:44:27.848Z,0
2017-10-05T04:45:08.373Z,0
2017-10-05T04:45:49.008Z,0
2017-10-05T04:46:29.514Z,0
2017-10-05T04:47:10.052Z,0
2017-10-05T04:47:50.606Z,0
2017-10-05T04:48:31.092Z,0
2017-10-05T04:49:11.655Z,0
2017-10-05T04:49:52.188Z,0
2017-10-05T04:50:32.754Z,0
2017-10-05T04:51:13.401Z,0
2017-10-05T04:51:53.884Z,0
2017-10-05T04:52:34.412Z,0
2017-10-05T04:53:14.958Z,0
2017-10-05T04:53:55.502Z,0
2017-10-05T04:54:36.229Z,0
2017-10-05T04:55:16.810Z,0
2017-10-05T04:55:57.354Z,0
2017-10-05T04:56:37.902Z,0
2017-10-05T04:57:18.488Z,0
2017-10-05T04:57:59.705Z,0
2017-10-05T04:58:39.845Z,0
2017-10-05T04:59:20.371Z,0
2017-10-05T05:00:00.914Z,0
2017-10-05T05:00:41.452Z,0
2017-10-05T05:01:22.022Z,0
2017-10-05T05:02:02.540Z,0
2017-10-05T05:02:43.307Z,0
2017-10-05T05:03:23.858Z,0
2017-10-05T05:04:04.355Z,0
2017-10-05T05:04:44.952Z,0
2017-10-05T05:05:25.462Z,4
2017-10-05T05:06:05.987Z,4
2017-10-05T05:06:46.573Z,4
2017-10-05T05:07:27.093Z,0
2017-10-05T05:08:07.559Z,0
2017-10-05T05:08:48.142Z,4
2017-10-05T05:09:28.750Z,4
2017-10-05T05:10:09.309Z,4
2017-10-05T05:10:49.879Z,4
2017-10-05T05:11:30.397Z,4
2017-10-05T05:12:10.896Z,8
2017-10-05T05:12:51.670Z,8
2017-10-05T05:13:31.971Z,8
2017-10-05T05:14:12.595Z,12
2017-10-05T05:14:53.138Z,12
2017-10-05T05:15:33.624Z,12
2017-10-05T05:16:14.209Z,12
2017-10-05T05:16:54.784Z,12
2017-10-05T05:17:35.329Z,16
2017-10-05T05:18:15.822Z,16
2017-10-05T05:18:56.400Z,20
2017-10-05T05:19:36.910Z,20
2017-10-05T05:20:17.600Z,28
2017-10-05T05:20:58.314Z,28
2017-10-05T05:21:38.839Z,32
2017-10-05T05:22:19.388Z,32
2017-10-05T05:23:00.011Z,36
2017-10-05T05:23:40.594Z,40
2017-10-05T05:24:21.161Z,40
2017-10-05T05:25:01.676Z,48
2017-10-05T05:25:42.214Z,48
2017-10-05T05:26:22.778Z,56
2017-10-05T05:27:03.378Z,60
2017-10-05T05:27:43.952Z,68
2017-10-05T05:28:24.483Z,68
2017-10-05T05:29:05.013Z,76
2017-10-05T05:29:45.582Z,84
2017-10-05T05:30:26.144Z,84
2017-10-05T05:31:06.629Z,96
2017-10-05T05:31:47.195Z,108
2017-10-05T05:32:27.785Z,108
2017-10-05T05:33:08.332Z,116
2017-10-05T05:33:48.845Z,120
2017-10-05T05:34:29.504Z,132
2017-10-05T05:35:10.085Z,136
2017-10-05T05:37:38.704Z,168
2017-10-05T05:38:19.169Z,172
2017-10-05T05:38:59.655Z,184
2017-10-05T05:39:40.295Z,196
2017-10-05T05:40:20.824Z,212
2017-10-05T05:41:01.386Z,212
2017-10-05T05:41:41.891Z,232
2017-10-05T05:42:22.426Z,236
2017-10-05T05:43:02.981Z,248
2017-10-05T05:43:43.496Z,256
2017-10-05T05:44:24.101Z,264
2017-10-05T05:45:04.582Z,288
2017-10-05T05:45:45.121Z,288
2017-10-05T05:46:25.656Z,308
2017-10-05T05:47:06.212Z,308
2017-10-05T05:47:46.785Z,316
2017-10-05T05:48:27.461Z,324
2017-10-05T05:49:07.966Z,336
2017-10-05T05:49:48.486Z,348
2017-10-05T05:50:29.043Z,356
2017-10-05T05:51:09.676Z,364
2017-10-05T05:51:50.165Z,376
2017-10-05T05:52:30.655Z,392
2017-10-05T05:53:11.209Z,400
2017-10-05T05:53:51.820Z,400
2017-10-05T05:54:32.374Z,408
2017-10-05T05:55:12.894Z,420
2017-10-05T05:55:53.622Z,436
2017-10-05T05:56:34.141Z,436
2017-10-05T05:57:14.742Z,444
2017-10-05T05:57:55.269Z,460
2017-10-05T05:58:35.779Z,468
2017-10-05T05:59:16.676Z,476
2017-10-05T05:59:57.402Z,488
2017-10-05T06:00:38.011Z,516
2017-10-05T06:01:18.533Z,508
2017-10-05T06:01:59.157Z,524
2017-10-05T06:02:39.737Z,536
2017-10-05T06:03:20.285Z,536
2017-10-05T06:04:00.830Z,548
2017-10-05T06:04:41.360Z,556
2017-10-05T06:05:21.872Z,572
2017-10-05T06:06:02.372Z,568
2017-10-05T06:06:42.916Z,592
2017-10-05T06:07:24.169Z,588
2017-10-05T06:08:04.697Z,604
2017-10-05T06:08:45.561Z,616
2017-10-05T06:09:26.139Z,608
2017-10-05T06:10:06.759Z,636
2017-10-05T06:10:48.201Z,620
2017-10-05T06:11:28.698Z,632
2017-10-05T06:12:09.213Z,636
2017-10-05T06:12:49.750Z,656
2017-10-05T06:13:30.294Z,652
2017-10-05T06:14:10.861Z,656
2017-10-05T06:14:51.361Z,664
2017-10-05T06:15:31.904Z,668
2017-10-05T06:16:12.429Z,680
2017-10-05T06:16:53.026Z,684
2017-10-05T06:17:33.544Z,704
2017-10-05T06:18:14.086Z,696
2017-10-05T06:18:54.610Z,732
2017-10-05T06:19:35.221Z,736
2017-10-05T06:20:15.796Z,720
2017-10-05T06:20:56.423Z,744
2017-10-05T06:21:37.050Z,740
2017-10-05T06:22:17.611Z,756
2017-10-05T06:22:58.261Z,756
2017-10-05T06:23:38.777Z,760
2017-10-05T06:24:19.494Z,780
2017-10-05T06:24:59.992Z,784
2017-10-05T06:25:40.505Z,796
2017-10-05T06:26:21.032Z,796
2017-10-05T06:27:01.596Z,796
2017-10-05T06:27:42.117Z,808
2017-10-05T06:28:22.722Z,820
2017-10-05T06:29:03.303Z,828
2017-10-05T06:29:43.879Z,840
2017-10-05T06:30:24.427Z,844
2017-10-05T06:31:04.973Z,888
2017-10-05T06:31:45.648Z,988
2017-10-05T06:32:26.082Z,1100
2017-10-05T06:33:06.622Z,1296
2017-10-05T06:33:47.430Z,1484
2017-10-05T06:34:28.403Z,1576
2017-10-05T06:35:08.872Z,1640
2017-10-05T06:35:49.418Z,1648
2017-10-05T06:36:30.074Z,1664
2017-10-05T06:37:10.747Z,1680
2017-10-05T06:37:51.293Z,1704
2017-10-05T06:38:31.843Z,1704
2017-10-05T06:39:12.462Z,1704
2017-10-05T06:39:52.965Z,1712
2017-10-05T06:40:33.505Z,1724
2017-10-05T06:41:14.098Z,1732
2017-10-05T06:41:54.632Z,1752
2017-10-05T06:42:35.121Z,1800
2017-10-05T06:43:15.650Z,1796
2017-10-05T06:43:56.258Z,1800
2017-10-05T06:44:36.962Z,1800
2017-10-05T06:45:17.422Z,1760
2017-10-05T06:45:57.996Z,1704
2017-10-05T06:46:38.487Z,1576
2017-10-05T06:47:19.026Z,1500
2017-10-05T06:47:59.590Z,1532
2017-10-05T06:48:40.247Z,1460
2017-10-05T06:49:20.623Z,1460
2017-10-05T06:50:01.282Z,1420
2017-10-05T06:50:41.750Z,1388
2017-10-05T06:51:22.341Z,1372
2017-10-05T06:52:02.852Z,1348
2017-10-05T06:52:43.458Z,1336
2017-10-05T06:53:24.114Z,1336
2017-10-05T06:54:04.729Z,1328
2017-10-05T06:54:45.339Z,1364
2017-10-05T06:55:25.893Z,1348
2017-10-05T06:56:06.442Z,1360
2017-10-05T06:56:46.954Z,1392
2017-10-05T06:57:27.519Z,1384
2017-10-05T06:58:08.117Z,1392
2017-10-05T06:58:48.641Z,1424
2017-10-05T06:59:29.147Z,1416
2017-10-05T07:00:09.716Z,1424
2017-10-05T07:00:50.262Z,1420
2017-10-05T07:01:30.769Z,1352
2017-10-05T07:02:11.309Z,1292
2017-10-05T07:02:51.903Z,1228
2017-10-05T07:03:32.625Z,1184
2017-10-05T07:04:13.251Z,1188
2017-10-05T07:04:53.737Z,1208
2017-10-05T07:05:34.433Z,1236
2017-10-05T07:06:15.044Z,1232
2017-10-05T07:06:55.608Z,1240
2017-10-05T07:07:36.173Z,1276
2017-10-05T07:08:16.703Z,1292
2017-10-05T07:08:57.225Z,1288
2017-10-05T07:09:37.774Z,1296
2017-10-05T07:10:19.024Z,1300
2017-10-05T07:10:58.865Z,1292
2017-10-05T07:11:39.355Z,1316
2017-10-05T07:12:19.859Z,1328
2017-10-05T07:13:00.353Z,1348
2017-10-05T07:13:40.943Z,1352
2017-10-05T07:14:21.459Z,1356
2017-10-05T07:15:01.995Z,1336
2017-10-05T07:15:42.502Z,1344
2017-10-05T07:16:23.059Z,1344
2017-10-05T07:17:03.624Z,1356
2017-10-05T07:17:44.180Z,1328
2017-10-05T07:18:24.804Z,1356
2017-10-05T07:19:05.320Z,1336
2017-10-05T07:19:45.837Z,1360
2017-10-05T07:20:26.447Z,1340
2017-10-05T07:21:07.010Z,1380
2017-10-05T07:21:47.531Z,1324
2017-10-05T07:22:28.065Z,1328
2017-10-05T07:23:08.690Z,1360
2017-10-05T07:23:49.233Z,1320
2017-10-05T07:24:29.760Z,1312
2017-10-05T07:25:10.305Z,1372
2017-10-05T07:25:50.851Z,1348
2017-10-05T07:26:31.381Z,1320
2017-10-05T07:27:12.125Z,1332
2017-10-05T07:27:52.725Z,1360
2017-10-05T07:28:33.285Z,1324
2017-10-05T07:29:13.938Z,1324
2017-10-05T07:29:54.510Z,1360
2017-10-05T07:30:35.017Z,1376
2017-10-05T07:31:15.616Z,1352
2017-10-05T07:31:56.129Z,1348
2017-10-05T07:32:36.701Z,1324
2017-10-05T07:33:17.226Z,1396
2017-10-05T07:33:57.750Z,1352
2017-10-05T07:34:38.284Z,1328
2017-10-05T07:35:18.839Z,1328
2017-10-05T07:35:59.369Z,1336
2017-10-05T07:36:39.971Z,1324
2017-10-05T07:37:20.536Z,1340
2017-10-05T07:38:01.494Z,1336
2017-10-05T07:38:43.062Z,1360
2017-10-05T07:39:24.144Z,1328
2017-10-05T07:40:04.589Z,1332
2017-10-05T07:40:45.196Z,1340
2017-10-05T07:41:25.762Z,1340
2017-10-05T07:42:06.288Z,1344
2017-10-05T07:42:46.818Z,1340
2017-10-05T07:43:27.428Z,1332
2017-10-05T07:44:07.977Z,1360
2017-10-05T07:44:48.461Z,1380
2017-10-05T07:45:28.992Z,1376
2017-10-05T07:46:09.597Z,1384
2017-10-05T07:46:50.118Z,1392
2017-10-05T07:47:30.773Z,1388
2017-10-05T07:48:11.311Z,1380
2017-10-05T07:48:51.849Z,1380
2017-10-05T07:49:32.449Z,1388
2017-10-05T07:50:12.955Z,1408
2017-10-05T07:50:53.510Z,1396
2017-10-05T07:51:34.211Z,1396
2017-10-05T07:52:14.725Z,1412
2017-10-05T07:52:55.293Z,1416
2017-10-05T07:53:35.840Z,1392
2017-10-05T07:54:16.387Z,1396
2017-10-05T07:54:56.913Z,1360
2017-10-05T07:55:37.477Z,1356
2017-10-05T07:56:17.992Z,1332
2017-10-05T07:56:58.578Z,1324
2017-10-05T07:57:39.060Z,1300
2017-10-05T07:58:19.834Z,1308
2017-10-05T07:59:00.387Z,1284
2017-10-05T07:59:40.953Z,1264
2017-10-05T08:00:21.478Z,1280
2017-10-05T08:01:02.052Z,1256
2017-10-05T08:01:42.713Z,1256
2017-10-05T08:02:23.254Z,1240
2017-10-05T08:03:03.896Z,1236
2017-10-05T08:03:44.458Z,1216
2017-10-05T08:04:25.016Z,1200
2017-10-05T08:05:05.540Z,1196
2017-10-05T08:05:46.140Z,1196
2017-10-05T08:06:26.769Z,1188
2017-10-05T08:07:07.292Z,1200
2017-10-05T08:07:47.817Z,1192
2017-10-05T08:08:28.398Z,1184
2017-10-05T08:09:08.943Z,1180
2017-10-05T08:09:49.499Z,1168
2017-10-05T08:10:29.986Z,1156
2017-10-05T08:11:10.693Z,1152
2017-10-05T08:11:51.180Z,1160
2017-10-05T08:12:31.692Z,1152
2017-10-05T08:13:12.293Z,1148
2017-10-05T08:13:52.967Z,1160
2017-10-05T08:14:33.481Z,1148
2017-10-05T08:15:14.064Z,1160
2017-10-05T08:15:54.651Z,1164
2017-10-05T08:16:35.237Z,1136
2017-10-05T08:17:15.810Z,1132
2017-10-05T08:17:56.328Z,1144
2017-10-05T08:18:36.889Z,1152
2017-10-05T08:19:17.430Z,1140
2017-10-05T08:19:57.964Z,1164
2017-10-05T08:20:38.707Z,1152
2017-10-05T08:21:19.231Z,1180
2017-10-05T08:21:59.650Z,1168
2017-10-05T08:22:40.459Z,1176
2017-10-05T08:23:21.267Z,1140
2017-10-05T08:24:01.852Z,1176
2017-10-05T08:24:42.522Z,1168
2017-10-05T08:25:23.091Z,1140
2017-10-05T08:26:03.688Z,1152
2017-10-05T08:26:44.152Z,1160
2017-10-05T08:27:24.706Z,1152
2017-10-05T08:28:05.257Z,1176
2017-10-05T08:28:45.820Z,1144
2017-10-05T08:29:26.504Z,1148
2017-10-05T08:30:07.040Z,1140
2017-10-05T08:30:47.494Z,1136
2017-10-05T08:31:28.111Z,1140
2017-10-05T08:32:08.657Z,1136
2017-10-05T08:32:49.179Z,1152
2017-10-05T08:33:29.730Z,1136
2017-10-05T08:34:10.710Z,1164
2017-10-05T08:34:51.310Z,1156
2017-10-05T08:35:32.220Z,1176
2017-10-05T08:36:12.329Z,1164
2017-10-05T08:36:53.030Z,1216
2017-10-05T08:37:33.556Z,1196
2017-10-05T08:38:14.131Z,1168
2017-10-05T08:38:55.011Z,1152
2017-10-05T08:39:35.407Z,1160
2017-10-05T08:40:15.882Z,1172
2017-10-05T08:40:56.494Z,1156
2017-10-05T08:41:37.004Z,1180
2017-10-05T08:42:17.532Z,1208
2017-10-05T08:42:58.029Z,1260
2017-10-05T08:43:38.592Z,1272
2017-10-05T08:44:19.212Z,1216
2017-10-05T08:44:59.708Z,1164
2017-10-05T08:45:40.277Z,1192
2017-10-05T08:46:20.812Z,1180
2017-10-05T08:47:01.275Z,1156
2017-10-05T08:47:42.027Z,1192
2017-10-05T08:48:22.335Z,1200
2017-10-05T08:49:02.992Z,1160
2017-10-05T08:49:43.457Z,1116
2017-10-05T08:50:23.958Z,1116
2017-10-05T08:51:04.641Z,1196
2017-10-05T08:51:45.174Z,1052
2017-10-05T08:52:25.778Z,1240
2017-10-05T08:53:06.259Z,1228
2017-10-05T08:53:46.864Z,1212
2017-10-05T08:54:27.650Z,1160
2017-10-05T08:55:08.733Z,1192
2017-10-05T08:55:49.202Z,1244
2017-10-05T08:56:29.837Z,1196
2017-10-05T08:57:10.275Z,1208
2017-10-05T08:57:50.877Z,1204
2017-10-05T08:58:31.384Z,1304
2017-10-05T08:59:11.936Z,1200
2017-10-05T08:59:52.465Z,1212
2017-10-05T09:00:33.004Z,1252
2017-10-05T09:01:13.586Z,1208
2017-10-05T09:01:54.117Z,1216
2017-10-05T09:02:34.600Z,1244
2017-10-05T09:03:15.145Z,1256
2017-10-05T09:03:55.756Z,1244
2017-10-05T09:04:36.239Z,1284
2017-10-05T09:05:16.811Z,1216
2017-10-05T09:05:57.426Z,1228
2017-10-05T09:06:37.894Z,1252
2017-10-05T09:07:18.443Z,1264
2017-10-05T09:07:58.990Z,1260
2017-10-05T09:08:39.651Z,1276
2017-10-05T09:09:20.188Z,1280
2017-10-05T09:10:01.337Z,1304
2017-10-05T09:10:41.903Z,1284
2017-10-05T09:11:22.428Z,1260
2017-10-05T09:12:03.049Z,1292
2017-10-05T09:12:43.609Z,1272
2017-10-05T09:13:24.236Z,1284
2017-10-05T09:14:04.760Z,1316
2017-10-05T09:14:45.289Z,1304
2017-10-05T09:15:26.371Z,1272
2017-10-05T09:16:06.870Z,1356
2017-10-05T09:16:47.425Z,1380
2017-10-05T09:17:27.952Z,1300
2017-10-05T09:18:08.561Z,1328
2017-10-05T09:18:49.032Z,1332
2017-10-05T09:19:29.589Z,1324
2017-10-05T09:20:10.157Z,1320
2017-10-05T09:20:50.639Z,1304
2017-10-05T09:21:31.264Z,1324
2017-10-05T09:22:11.831Z,1332
2017-10-05T09:22:52.341Z,1360
2017-10-05T09:23:32.892Z,1356
2017-10-05T09:24:13.418Z,1340
2017-10-05T09:24:54.516Z,1360
2017-10-05T09:25:35.060Z,1340
2017-10-05T09:26:15.632Z,1340
2017-10-05T09:26:56.215Z,1360
2017-10-05T09:27:36.774Z,1392
2017-10-05T09:28:17.332Z,1404
2017-10-05T09:28:57.881Z,1392
2017-10-05T09:29:38.438Z,1400
2017-10-05T09:30:18.958Z,1436
2017-10-05T09:30:59.515Z,1380
2017-10-05T09:31:40.006Z,1380
2017-10-05T09:32:20.608Z,1420
2017-10-05T09:33:01.139Z,1404
2017-10-05T09:33:41.660Z,1432
2017-10-05T09:34:22.241Z,1424
2017-10-05T09:35:02.777Z,1436
2017-10-05T09:35:43.467Z,1416
2017-10-05T09:36:23.993Z,1476
2017-10-05T09:37:04.502Z,1472
2017-10-05T09:37:45.097Z,1548
2017-10-05T09:38:25.638Z,1492
2017-10-05T09:39:06.168Z,1492
2017-10-05T09:39:46.721Z,1496
2017-10-05T09:40:27.241Z,1492
2017-10-05T09:41:07.778Z,1520
2017-10-05T09:41:48.364Z,1520